createdAt,value
2016-09-18T00:00:20.292Z,1012.34
2016-09-18T00:01:31.294Z,1012.32
2016-09-18T00:02:42.294Z,1012.33
2016-09-18T00:03:53.297Z,1012.27
2016-09-18T00:05:04.321Z,1012.29
2016-09-18T00:06:15.524Z,1012.26
2016-09-18T00:07:26.527Z,1012.27
2016-09-18T00:08:37.527Z,1012.25
2016-09-18T00:09:48.527Z,1012.25
2016-09-18T00:10:59.521Z,1012.3
2016-09-18T00:12:10.527Z,1012.34
2016-09-18T00:13:21.520Z,1012.35
2016-09-18T00:14:32.526Z,1012.34
2016-09-18T00:15:43.531Z,1012.35
2016-09-18T00:16:54.539Z,1012.34
2016-09-18T00:18:05.561Z,1012.32
2016-09-18T00:19:16.613Z,1012.35
2016-09-18T00:20:27.609Z,1012.33
2016-09-18T00:21:38.613Z,1012.29
2016-09-18T00:22:49.618Z,1012.32
2016-09-18T00:24:00.624Z,1012.33
2016-09-18T00:25:11.625Z,1012.31
2016-09-18T00:26:22.626Z,1012.28
2016-09-18T00:27:33.623Z,1012.31
2016-09-18T00:28:44.621Z,1012.33
2016-09-18T00:29:55.618Z,1012.36
2016-09-18T00:31:06.622Z,1012.37
2016-09-18T00:32:17.624Z,1012.35
2016-09-18T00:33:28.832Z,1012.32
2016-09-18T00:34:39.832Z,1012.36
2016-09-18T00:35:50.840Z,1012.32
2016-09-18T00:37:01.840Z,1012.31
2016-09-18T00:38:12.856Z,1012.33
2016-09-18T00:39:23.854Z,1012.3
2016-09-18T00:40:34.861Z,1012.33
2016-09-18T00:41:45.854Z,1012.33
2016-09-18T00:42:56.856Z,1012.34
2016-09-18T00:44:07.860Z,1012.34
2016-09-18T00:45:18.869Z,1012.39
2016-09-18T00:46:29.865Z,1012.36
2016-09-18T00:47:40.868Z,1012.43
2016-09-18T00:48:51.876Z,1012.46
2016-09-18T00:50:02.884Z,1012.45
2016-09-18T00:51:13.884Z,1012.38
2016-09-18T00:52:24.894Z,1012.41
2016-09-18T00:53:35.893Z,1012.43
2016-09-18T00:54:47.098Z,1012.39
2016-09-18T00:55:58.305Z,1012.39
2016-09-18T00:57:09.315Z,1012.38
2016-09-18T00:58:20.325Z,1012.36
2016-09-18T00:59:31.324Z,1012.33
2016-09-18T01:00:42.321Z,1012.35
2016-09-18T01:01:53.323Z,1012.35
2016-09-18T01:03:04.321Z,1012.31
2016-09-18T01:04:15.526Z,1012.29
2016-09-18T01:05:26.521Z,1012.32
2016-09-18T01:06:37.517Z,1012.28
2016-09-18T01:07:48.524Z,1012.3
2016-09-18T01:08:59.538Z,1012.34
2016-09-18T01:10:10.540Z,1012.34
2016-09-18T01:11:21.530Z,1012.37
2016-09-18T01:12:32.733Z,1012.37
2016-09-18T01:13:43.735Z,1012.4
2016-09-18T01:14:54.736Z,1012.36
2016-09-18T01:16:05.737Z,1012.31
2016-09-18T01:17:16.739Z,1012.32
2016-09-18T01:18:27.742Z,1012.3
2016-09-18T01:19:38.955Z,1012.33
2016-09-18T01:20:49.956Z,1012.31
2016-09-18T01:22:00.955Z,1012.26
2016-09-18T01:23:11.968Z,1012.26
2016-09-18T01:24:22.965Z,1012.28
2016-09-18T01:25:33.978Z,1012.28
2016-09-18T01:26:44.986Z,1012.25
2016-09-18T01:27:55.981Z,1012.24
2016-09-18T01:29:06.975Z,1012.27
2016-09-18T01:30:17.975Z,1012.29
2016-09-18T01:31:28.969Z,1012.29
2016-09-18T01:32:39.980Z,1012.28
2016-09-18T01:33:51.195Z,1012.29
2016-09-18T01:35:02.197Z,1012.31
2016-09-18T01:36:13.192Z,1012.36
2016-09-18T01:37:24.192Z,1012.32
2016-09-18T01:38:35.194Z,1012.36
2016-09-18T01:39:46.429Z,1012.34
2016-09-18T01:40:57.437Z,1012.33
2016-09-18T01:42:08.449Z,1012.35
2016-09-18T01:43:19.448Z,1012.35
2016-09-18T01:44:30.665Z,1012.35
2016-09-18T01:45:41.680Z,1012.37
2016-09-18T01:46:52.885Z,1012.36
2016-09-18T01:48:03.896Z,1012.36
2016-09-18T01:49:14.895Z,1012.35
2016-09-18T01:50:25.895Z,1012.38
2016-09-18T01:51:36.900Z,1012.33
2016-09-18T01:52:47.892Z,1012.3
2016-09-18T01:53:58.896Z,1012.32
2016-09-18T01:55:10.095Z,1012.3
2016-09-18T01:56:21.095Z,1012.3
2016-09-18T01:57:32.109Z,1012.28
2016-09-18T01:58:43.105Z,1012.29
2016-09-18T01:59:54.307Z,1012.35
2016-09-18T02:01:05.325Z,1012.36
2016-09-18T02:02:16.333Z,1012.33
2016-09-18T02:03:27.339Z,1012.34
2016-09-18T02:04:38.335Z,1012.31
2016-09-18T02:05:49.336Z,1012.34
2016-09-18T02:07:00.339Z,1012.32
2016-09-18T02:08:11.543Z,1012.36
2016-09-18T02:09:22.552Z,1012.27
2016-09-18T02:10:33.553Z,1012.29
2016-09-18T02:11:44.563Z,1012.32
2016-09-18T02:12:55.575Z,1012.31
2016-09-18T02:14:06.573Z,1012.29
2016-09-18T02:15:17.574Z,1012.29
2016-09-18T02:16:28.786Z,1012.27
2016-09-18T02:17:39.794Z,1012.27
2016-09-18T02:18:50.996Z,1012.26
2016-09-18T02:20:02.001Z,1012.23
2016-09-18T02:21:13.005Z,1012.23
2016-09-18T02:22:24.006Z,1012.25
2016-09-18T02:23:35.006Z,1012.23
2016-09-18T02:24:46.011Z,1012.24
2016-09-18T02:25:57.016Z,1012.26
2016-09-18T02:27:08.217Z,1012.25
2016-09-18T02:28:19.222Z,1012.22
2016-09-18T02:29:30.226Z,1012.2
2016-09-18T02:30:41.231Z,1012.22
2016-09-18T02:31:52.236Z,1012.23
2016-09-18T02:33:03.233Z,1012.21
2016-09-18T02:34:14.238Z,1012.25
2016-09-18T02:35:25.247Z,1012.23
2016-09-18T02:36:36.250Z,1012.28
2016-09-18T02:37:47.247Z,1012.21
2016-09-18T02:38:58.652Z,1012.26
2016-09-18T02:40:09.657Z,1012.22
2016-09-18T02:41:20.669Z,1012.25
2016-09-18T02:42:31.670Z,1012.29
2016-09-18T02:43:42.714Z,1012.25
2016-09-18T02:44:53.724Z,1012.23
2016-09-18T02:46:04.724Z,1012.23
2016-09-18T02:47:15.725Z,1012.25
2016-09-18T02:48:26.942Z,1012.23
2016-09-18T02:49:37.946Z,1012.21
2016-09-18T02:50:48.953Z,1012.25
2016-09-18T02:51:59.951Z,1012.23
2016-09-18T02:53:10.954Z,1012.24
2016-09-18T02:54:21.963Z,1012.22
2016-09-18T02:55:32.966Z,1012.24
2016-09-18T02:56:43.971Z,1012.19
2016-09-18T02:57:55.190Z,1012.19
2016-09-18T02:59:06.194Z,1012.18
2016-09-18T03:00:17.190Z,1012.21
2016-09-18T03:01:28.211Z,1012.2
2016-09-18T03:02:39.218Z,1012.21
2016-09-18T03:03:50.441Z,1012.19
2016-09-18T03:05:01.448Z,1012.17
2016-09-18T03:06:12.665Z,1012.19
2016-09-18T03:07:23.668Z,1012.16
2016-09-18T03:08:34.878Z,1012.16
2016-09-18T03:09:46.089Z,1012.16
2016-09-18T03:10:57.098Z,1012.13
2016-09-18T03:12:08.099Z,1012.17
2016-09-18T03:13:19.118Z,1012.15
2016-09-18T03:14:30.119Z,1012.11
2016-09-18T03:15:41.124Z,1012.12
2016-09-18T03:16:52.123Z,1012.13
2016-09-18T03:18:03.124Z,1012.08
2016-09-18T03:19:14.121Z,1012.11
2016-09-18T03:20:25.125Z,1012.09
2016-09-18T03:21:36.132Z,1012.1
2016-09-18T03:22:47.752Z,1012.05
2016-09-18T03:23:58.755Z,1012.04
2016-09-18T03:25:09.752Z,1012.04
2016-09-18T03:26:20.761Z,1012.04
2016-09-18T03:27:31.758Z,1012.03
2016-09-18T03:28:42.762Z,1012.08
2016-09-18T03:29:53.764Z,1012.04
2016-09-18T03:31:04.785Z,1012.03
2016-09-18T03:32:15.789Z,1012
2016-09-18T03:33:27.210Z,1011.96
2016-09-18T03:34:38.209Z,1011.96
2016-09-18T03:35:49.214Z,1011.97
2016-09-18T03:37:00.211Z,1011.95
2016-09-18T03:38:11.225Z,1011.96
2016-09-18T03:39:22.230Z,1011.97
2016-09-18T03:40:33.232Z,1011.97
2016-09-18T03:41:44.229Z,1012
2016-09-18T03:42:55.239Z,1012
2016-09-18T03:44:06.234Z,1011.98
2016-09-18T03:45:17.238Z,1011.96
2016-09-18T03:46:28.242Z,1011.96
2016-09-18T03:47:39.244Z,1011.96
2016-09-18T03:48:50.245Z,1011.95
2016-09-18T03:50:01.250Z,1011.99
2016-09-18T03:51:12.270Z,1011.95
2016-09-18T03:52:23.469Z,1011.97
2016-09-18T03:53:34.681Z,1011.97
2016-09-18T03:54:45.684Z,1011.99
2016-09-18T03:55:56.687Z,1012
2016-09-18T03:57:07.700Z,1011.98
2016-09-18T03:58:18.702Z,1012.02
2016-09-18T03:59:29.716Z,1012.08
2016-09-18T04:00:40.719Z,1012.1
2016-09-18T04:01:51.732Z,1012.07
2016-09-18T04:03:02.743Z,1012.05
2016-09-18T04:04:13.744Z,1012.04
2016-09-18T04:05:24.752Z,1012.06
2016-09-18T04:06:35.757Z,1012.1
2016-09-18T04:07:46.758Z,1012.04
2016-09-18T04:08:57.961Z,1012.07
2016-09-18T04:10:08.957Z,1012.05
2016-09-18T04:11:20.168Z,1012.03
2016-09-18T04:12:31.179Z,1011.99
2016-09-18T04:13:42.183Z,1011.97
2016-09-18T04:14:53.189Z,1011.99
2016-09-18T04:16:04.207Z,1011.92
2016-09-18T04:17:15.217Z,1011.93
2016-09-18T04:18:26.428Z,1011.92
2016-09-18T04:19:37.478Z,1011.9
2016-09-18T04:20:48.474Z,1011.91
2016-09-18T04:21:59.481Z,1011.9
2016-09-18T04:23:10.479Z,1011.88
2016-09-18T04:24:21.476Z,1011.93
2016-09-18T04:25:32.476Z,1011.89
2016-09-18T04:26:43.479Z,1011.93
2016-09-18T04:27:54.496Z,1011.91
2016-09-18T04:29:05.493Z,1011.94
2016-09-18T04:30:16.700Z,1011.95
2016-09-18T04:31:27.773Z,1011.87
2016-09-18T04:32:38.986Z,1011.94
2016-09-18T04:33:49.984Z,1011.92
2016-09-18T04:35:00.987Z,1011.91
2016-09-18T04:36:12.183Z,1011.92
2016-09-18T04:37:23.586Z,1011.94
2016-09-18T04:38:34.587Z,1011.98
2016-09-18T04:39:45.590Z,1011.92
2016-09-18T04:40:56.587Z,1011.93
2016-09-18T04:42:07.604Z,1011.93
2016-09-18T04:43:18.611Z,1011.94
2016-09-18T04:44:29.610Z,1011.98
2016-09-18T04:45:40.852Z,1011.96
2016-09-18T04:46:51.857Z,1011.95
2016-09-18T04:48:02.855Z,1011.95
2016-09-18T04:49:13.869Z,1011.94
2016-09-18T04:50:24.872Z,1011.99
2016-09-18T04:51:35.863Z,1011.96
2016-09-18T04:52:46.872Z,1011.97
2016-09-18T04:53:57.873Z,1012.02
2016-09-18T04:55:08.881Z,1012.02
2016-09-18T04:56:19.870Z,1012.05
2016-09-18T04:57:30.869Z,1012.03
2016-09-18T04:58:41.867Z,1012.06
2016-09-18T04:59:52.875Z,1012.06
2016-09-18T05:01:03.877Z,1012.06
2016-09-18T05:02:15.083Z,1012.08
2016-09-18T05:03:26.079Z,1012.09
2016-09-18T05:04:37.084Z,1012.07
2016-09-18T05:05:48.126Z,1012.12
2016-09-18T05:06:59.134Z,1012.14
2016-09-18T05:08:10.138Z,1012.09
2016-09-18T05:09:21.354Z,1012.08
2016-09-18T05:10:32.555Z,1012.13
2016-09-18T05:11:43.555Z,1012.13
2016-09-18T05:12:54.554Z,1012.08
2016-09-18T05:14:05.558Z,1012.08
2016-09-18T05:15:16.763Z,1012.09
2016-09-18T05:16:27.766Z,1012.04
2016-09-18T05:17:38.770Z,1012.09
2016-09-18T05:18:49.772Z,1012.07
2016-09-18T05:20:00.823Z,1012.05
2016-09-18T05:21:12.025Z,1012.15
2016-09-18T05:22:23.030Z,1012.14
2016-09-18T05:23:34.030Z,1012.16
2016-09-18T05:24:45.040Z,1012.17
2016-09-18T05:25:56.044Z,1012.19
2016-09-18T05:27:07.039Z,1012.19
2016-09-18T05:28:18.038Z,1012.13
2016-09-18T05:29:29.044Z,1012.13
2016-09-18T05:30:40.041Z,1012.11
2016-09-18T05:31:51.039Z,1012.11
2016-09-18T05:33:02.039Z,1012.13
2016-09-18T05:34:13.241Z,1012.17
2016-09-18T05:35:24.446Z,1012.15
2016-09-18T05:36:35.440Z,1012.19
2016-09-18T05:37:46.450Z,1012.23
2016-09-18T05:38:57.849Z,1012.2
2016-09-18T05:40:08.851Z,1012.23
2016-09-18T05:41:19.847Z,1012.21
2016-09-18T05:42:30.852Z,1012.24
2016-09-18T05:43:41.856Z,1012.24
2016-09-18T05:44:52.852Z,1012.21
2016-09-18T05:46:03.854Z,1012.24
2016-09-18T05:47:14.863Z,1012.2
2016-09-18T05:48:25.861Z,1012.22
2016-09-18T05:49:37.059Z,1012.26
2016-09-18T05:50:48.063Z,1012.24
2016-09-18T05:51:59.064Z,1012.25
2016-09-18T05:53:10.069Z,1012.25
2016-09-18T05:54:21.271Z,1012.3
2016-09-18T05:55:32.264Z,1012.27
2016-09-18T05:56:43.273Z,1012.28
2016-09-18T05:57:54.270Z,1012.36
2016-09-18T05:59:05.268Z,1012.35
2016-09-18T06:00:16.274Z,1012.34
2016-09-18T06:01:27.273Z,1012.33
2016-09-18T06:02:38.271Z,1012.29
2016-09-18T06:03:49.271Z,1012.28
2016-09-18T06:05:00.277Z,1012.29
2016-09-18T06:06:11.271Z,1012.26
2016-09-18T06:07:22.477Z,1012.29
2016-09-18T06:08:33.475Z,1012.24
2016-09-18T06:09:44.689Z,1012.21
2016-09-18T06:10:55.893Z,1012.28
2016-09-18T06:12:06.878Z,1012.27
2016-09-18T06:13:17.871Z,1012.24
2016-09-18T06:14:28.872Z,1012.25
2016-09-18T06:15:39.885Z,1012.22
2016-09-18T06:16:50.887Z,1012.21
2016-09-18T06:18:01.883Z,1012.22
2016-09-18T06:19:12.880Z,1012.24
2016-09-18T06:20:23.927Z,1012.26
2016-09-18T06:21:35.209Z,1012.22
2016-09-18T06:22:46.415Z,1012.25
2016-09-18T06:23:57.411Z,1012.27
2016-09-18T06:25:08.818Z,1012.26
2016-09-18T06:26:19.820Z,1012.28
2016-09-18T06:27:31.040Z,1012.27
2016-09-18T06:28:42.042Z,1012.26
2016-09-18T06:29:53.240Z,1012.24
2016-09-18T06:31:04.240Z,1012.29
2016-09-18T06:32:15.435Z,1012.3
2016-09-18T06:33:26.430Z,1012.3
2016-09-18T06:34:37.432Z,1012.31
2016-09-18T06:35:48.439Z,1012.33
2016-09-18T06:36:59.435Z,1012.35
2016-09-18T06:38:10.630Z,1012.35
2016-09-18T06:39:21.632Z,1012.36
2016-09-18T06:40:32.649Z,1012.41
2016-09-18T06:41:43.847Z,1012.35
2016-09-18T06:42:55.254Z,1012.4
2016-09-18T06:44:06.256Z,1012.4
2016-09-18T06:45:17.273Z,1012.4
2016-09-18T06:46:28.277Z,1012.41
2016-09-18T06:47:39.270Z,1012.4
2016-09-18T06:48:50.278Z,1012.43
2016-09-18T06:50:01.271Z,1012.42
2016-09-18T06:51:12.267Z,1012.39
2016-09-18T06:52:23.273Z,1012.43
2016-09-18T06:53:34.286Z,1012.39
2016-09-18T06:54:45.290Z,1012.42
2016-09-18T06:55:56.290Z,1012.44
2016-09-18T06:57:07.295Z,1012.46
2016-09-18T06:58:18.304Z,1012.46
2016-09-18T06:59:29.308Z,1012.44
2016-09-18T07:00:40.308Z,1012.45
2016-09-18T07:01:51.316Z,1012.47
2016-09-18T07:03:02.318Z,1012.48
2016-09-18T07:04:13.318Z,1012.51
2016-09-18T07:05:24.310Z,1012.5
2016-09-18T07:06:35.311Z,1012.46
2016-09-18T07:07:46.533Z,1012.46
2016-09-18T07:08:57.736Z,1012.43
2016-09-18T07:10:08.729Z,1012.47
2016-09-18T07:11:19.929Z,1012.42
2016-09-18T07:12:30.934Z,1012.41
2016-09-18T07:13:41.937Z,1012.38
2016-09-18T07:14:52.935Z,1012.4
2016-09-18T07:16:03.932Z,1012.38
2016-09-18T07:17:14.931Z,1012.34
2016-09-18T07:18:25.927Z,1012.37
2016-09-18T07:19:37.130Z,1012.43
2016-09-18T07:20:48.391Z,1012.43
2016-09-18T07:21:59.594Z,1012.4
2016-09-18T07:23:10.591Z,1012.44
2016-09-18T07:24:21.585Z,1012.44
2016-09-18T07:25:32.791Z,1012.44
2016-09-18T07:26:43.781Z,1012.42
2016-09-18T07:27:54.785Z,1012.38
2016-09-18T07:29:05.780Z,1012.39
2016-09-18T07:30:16.777Z,1012.39
2016-09-18T07:31:27.785Z,1012.42
2016-09-18T07:32:38.789Z,1012.46
2016-09-18T07:33:49.796Z,1012.47
2016-09-18T07:35:00.818Z,1012.5
2016-09-18T07:36:11.821Z,1012.52
2016-09-18T07:37:22.819Z,1012.46
2016-09-18T07:38:33.829Z,1012.47
2016-09-18T07:39:44.838Z,1012.46
2016-09-18T07:40:55.850Z,1012.47
2016-09-18T07:42:06.846Z,1012.51
2016-09-18T07:43:17.846Z,1012.48
2016-09-18T07:44:28.837Z,1012.48
2016-09-18T07:45:40.058Z,1012.46
2016-09-18T07:46:51.055Z,1012.46
2016-09-18T07:48:02.259Z,1012.45
2016-09-18T07:49:13.270Z,1012.47
2016-09-18T07:50:24.267Z,1012.41
2016-09-18T07:51:35.273Z,1012.44
2016-09-18T07:52:46.287Z,1012.43
2016-09-18T07:53:57.305Z,1012.45
2016-09-18T07:55:08.304Z,1012.48
2016-09-18T07:56:19.310Z,1012.4
2016-09-18T07:57:30.316Z,1012.44
2016-09-18T07:58:41.322Z,1012.44
2016-09-18T07:59:52.333Z,1012.41
2016-09-18T08:01:03.340Z,1012.4
2016-09-18T08:02:14.349Z,1012.43
2016-09-18T08:03:25.357Z,1012.46
2016-09-18T08:04:36.364Z,1012.49
2016-09-18T08:05:47.363Z,1012.59
2016-09-18T08:06:58.571Z,1012.52
2016-09-18T08:08:09.774Z,1012.51
2016-09-18T08:09:20.981Z,1012.55
2016-09-18T08:10:31.976Z,1012.56
2016-09-18T08:11:42.977Z,1012.6
2016-09-18T08:12:53.982Z,1012.56
2016-09-18T08:14:04.986Z,1012.7
2016-09-18T08:15:15.985Z,1012.67
2016-09-18T08:16:26.987Z,1012.69
2016-09-18T08:17:37.995Z,1012.79
2016-09-18T08:18:49.010Z,1012.7
2016-09-18T08:20:00.021Z,1012.73
2016-09-18T08:21:11.286Z,1012.76
2016-09-18T08:22:22.287Z,1012.78
2016-09-18T08:23:33.290Z,1012.72
2016-09-18T08:24:44.296Z,1012.63
2016-09-18T08:25:55.501Z,1012.6
2016-09-18T08:27:06.499Z,1012.68
2016-09-18T08:28:17.500Z,1012.71
2016-09-18T08:29:28.504Z,1012.89
2016-09-18T08:30:39.513Z,1012.9
2016-09-18T08:31:50.509Z,1012.99
2016-09-18T08:33:01.515Z,1012.99
2016-09-18T08:34:12.518Z,1012.98
2016-09-18T08:35:23.531Z,1012.82
2016-09-18T08:36:34.742Z,1012.68
2016-09-18T08:37:45.763Z,1012.65
2016-09-18T08:38:56.782Z,1012.75
2016-09-18T08:40:08.199Z,1012.94
2016-09-18T08:41:19.200Z,1012.81
2016-09-18T08:42:30.218Z,1012.78
2016-09-18T08:43:41.222Z,1012.92
2016-09-18T08:44:52.235Z,1013.05
2016-09-18T08:46:03.243Z,1013.02
2016-09-18T08:47:14.256Z,1012.9
2016-09-18T08:48:25.254Z,1012.79
2016-09-18T08:49:36.261Z,1012.85
2016-09-18T08:50:47.487Z,1012.88
2016-09-18T08:51:58.504Z,1012.85
2016-09-18T08:53:09.509Z,1012.82
2016-09-18T08:54:20.509Z,1012.86
2016-09-18T08:55:31.510Z,1012.93
2016-09-18T08:56:42.518Z,1013.02
2016-09-18T08:57:53.536Z,1012.92
2016-09-18T08:59:04.749Z,1012.9
2016-09-18T09:00:15.765Z,1012.91
2016-09-18T09:01:26.780Z,1012.96
2016-09-18T09:02:37.783Z,1013.13
2016-09-18T09:03:48.817Z,1012.95
2016-09-18T09:05:00.033Z,1013.14
2016-09-18T09:06:11.266Z,1013.07
2016-09-18T09:07:22.272Z,1012.89
2016-09-18T09:08:33.279Z,1013
2016-09-18T09:09:44.283Z,1013.03
2016-09-18T09:10:55.495Z,1013.03
2016-09-18T09:12:06.497Z,1012.99
2016-09-18T09:13:17.497Z,1013.04
2016-09-18T09:14:28.528Z,1012.99
2016-09-18T09:15:39.539Z,1013.08
2016-09-18T09:16:50.545Z,1012.95
2016-09-18T09:18:01.558Z,1012.77
2016-09-18T09:19:12.577Z,1013.07
2016-09-18T09:20:23.584Z,1012.94
2016-09-18T09:21:34.644Z,1013.08
2016-09-18T09:22:45.646Z,1012.9
2016-09-18T09:23:56.651Z,1012.93
2016-09-18T09:25:07.856Z,1013.13
2016-09-18T09:26:19.280Z,1013
2016-09-18T09:27:30.301Z,1012.91
2016-09-18T09:28:41.314Z,1012.96
2016-09-18T09:29:52.332Z,1012.9
2016-09-18T09:31:03.348Z,1012.87
2016-09-18T09:32:14.564Z,1013.02
2016-09-18T09:33:25.582Z,1012.88
2016-09-18T09:34:36.603Z,1012.9
2016-09-18T09:35:47.819Z,1012.97
2016-09-18T09:36:59.038Z,1012.94
2016-09-18T09:38:10.058Z,1012.93
2016-09-18T09:39:21.080Z,1012.93
2016-09-18T09:40:32.095Z,1012.89
2016-09-18T09:41:43.306Z,1012.92
2016-09-18T09:42:54.315Z,1012.91
2016-09-18T09:44:05.339Z,1012.86
2016-09-18T09:45:16.335Z,1012.81
2016-09-18T09:46:27.356Z,1012.82
2016-09-18T09:47:38.366Z,1013.14
2016-09-18T09:48:49.577Z,1012.91
2016-09-18T09:50:00.587Z,1012.89
2016-09-18T09:51:11.612Z,1012.87
2016-09-18T09:52:22.820Z,1012.85
2016-09-18T09:53:34.035Z,1012.95
2016-09-18T09:54:45.055Z,1013.01
2016-09-18T09:55:56.266Z,1013.23
2016-09-18T09:57:07.285Z,1013.05
2016-09-18T09:58:18.304Z,1012.95
2016-09-18T09:59:29.318Z,1012.77
2016-09-18T10:00:40.333Z,1012.79
2016-09-18T10:01:51.552Z,1012.81
2016-09-18T10:03:02.569Z,1012.67
2016-09-18T10:04:13.589Z,1012.62
2016-09-18T10:05:24.606Z,1012.69
2016-09-18T10:06:35.622Z,1012.77
2016-09-18T10:07:46.834Z,1012.86
2016-09-18T10:08:58.058Z,1012.81
2016-09-18T10:10:09.069Z,1012.69
2016-09-18T10:11:20.092Z,1012.77
2016-09-18T10:12:31.112Z,1012.73
2016-09-18T10:13:42.125Z,1012.9
2016-09-18T10:14:53.139Z,1012.96
2016-09-18T10:16:04.143Z,1012.99
2016-09-18T10:17:15.162Z,1012.98
2016-09-18T10:18:26.180Z,1012.91
2016-09-18T10:19:37.205Z,1012.91
2016-09-18T10:20:48.224Z,1012.9
2016-09-18T10:21:59.491Z,1012.84
2016-09-18T10:23:10.510Z,1012.81
2016-09-18T10:24:21.528Z,1012.92
2016-09-18T10:25:32.542Z,1012.91
2016-09-18T10:26:43.561Z,1012.82
2016-09-18T10:27:54.581Z,1012.83
2016-09-18T10:29:06.005Z,1012.84
2016-09-18T10:30:17.020Z,1012.7
2016-09-18T10:31:28.040Z,1012.74
2016-09-18T10:32:39.267Z,1012.81
2016-09-18T10:33:50.291Z,1012.82
2016-09-18T10:35:01.303Z,1012.77
2016-09-18T10:36:12.320Z,1012.76
2016-09-18T10:37:23.740Z,1012.73
2016-09-18T10:38:34.800Z,1012.62
2016-09-18T10:39:45.819Z,1012.67
2016-09-18T10:40:56.828Z,1012.72
2016-09-18T10:42:08.046Z,1012.67
2016-09-18T10:43:19.261Z,1012.65
2016-09-18T10:44:30.274Z,1012.62
2016-09-18T10:45:41.491Z,1012.58
2016-09-18T10:46:52.499Z,1012.6
2016-09-18T10:48:03.728Z,1012.59
2016-09-18T10:49:14.739Z,1012.56
2016-09-18T10:50:25.958Z,1012.6
2016-09-18T10:51:37.179Z,1012.6
2016-09-18T10:52:48.197Z,1012.61
2016-09-18T10:53:59.215Z,1012.6
2016-09-18T10:55:10.247Z,1012.55
2016-09-18T10:56:21.271Z,1012.58
2016-09-18T10:57:32.282Z,1012.58
2016-09-18T10:58:43.306Z,1012.54
2016-09-18T10:59:54.317Z,1012.52
2016-09-18T11:01:05.341Z,1012.51
2016-09-18T11:02:16.573Z,1012.6
2016-09-18T11:03:27.594Z,1012.64
2016-09-18T11:04:38.610Z,1012.62
2016-09-18T11:05:49.638Z,1012.45
2016-09-18T11:07:00.866Z,1012.38
2016-09-18T11:08:11.891Z,1012.37
2016-09-18T11:09:22.899Z,1012.46
2016-09-18T11:10:33.911Z,1012.52
2016-09-18T11:11:44.934Z,1012.47
2016-09-18T11:12:55.962Z,1012.49
2016-09-18T11:14:06.981Z,1012.53
2016-09-18T11:15:18.193Z,1012.56
2016-09-18T11:16:29.210Z,1012.54
2016-09-18T11:17:40.234Z,1012.51
2016-09-18T11:18:51.245Z,1012.58
2016-09-18T11:20:02.261Z,1012.5
2016-09-18T11:21:13.288Z,1012.73
2016-09-18T11:22:24.360Z,1012.85
2016-09-18T11:23:35.371Z,1012.61
2016-09-18T11:24:46.385Z,1013.12
2016-09-18T11:25:57.408Z,1012.65
2016-09-18T11:27:08.421Z,1012.64
2016-09-18T11:28:19.434Z,1012.55
2016-09-18T11:29:30.452Z,1012.45
2016-09-18T11:30:41.472Z,1012.39
2016-09-18T11:31:52.494Z,1012.4
2016-09-18T11:33:03.494Z,1012.35
2016-09-18T11:34:14.511Z,1012.4
2016-09-18T11:35:25.738Z,1012.34
2016-09-18T11:36:36.752Z,1012.33
2016-09-18T11:37:47.766Z,1012.34
2016-09-18T11:38:58.782Z,1012.39
2016-09-18T11:40:09.803Z,1012.38
2016-09-18T11:41:20.815Z,1012.37
2016-09-18T11:42:31.830Z,1012.69
2016-09-18T11:43:42.847Z,1012.38
2016-09-18T11:44:53.872Z,1012.53
2016-09-18T11:46:05.281Z,1012.38
2016-09-18T11:47:16.488Z,1012.35
2016-09-18T11:48:27.504Z,1012.53
2016-09-18T11:49:38.916Z,1012.27
2016-09-18T11:50:49.922Z,1012.5
2016-09-18T11:52:00.937Z,1012.37
2016-09-18T11:53:11.955Z,1012.53
2016-09-18T11:54:22.964Z,1012.55
2016-09-18T11:55:33.967Z,1012.61
2016-09-18T11:56:44.979Z,1012.26
2016-09-18T11:57:55.998Z,1012.83
2016-09-18T11:59:07.023Z,1013.34
2016-09-18T12:00:18.030Z,1013.83
2016-09-18T12:01:29.036Z,1013.86
2016-09-18T12:02:40.053Z,1013.58
2016-09-18T12:03:51.070Z,1013.12
2016-09-18T12:05:02.285Z,1012.3
2016-09-18T12:06:13.300Z,1012.21
2016-09-18T12:07:24.520Z,1012.2
2016-09-18T12:08:35.538Z,1012.2
2016-09-18T12:09:46.756Z,1012.18
2016-09-18T12:10:57.762Z,1012.17
2016-09-18T12:12:08.777Z,1012.18
2016-09-18T12:13:19.800Z,1012.16
2016-09-18T12:14:31.011Z,1012.18
2016-09-18T12:15:42.020Z,1012.2
2016-09-18T12:16:53.030Z,1012.16
2016-09-18T12:18:04.249Z,1012.13
2016-09-18T12:19:15.275Z,1012.13
2016-09-18T12:20:26.490Z,1012.18
2016-09-18T12:21:37.501Z,1012.21
2016-09-18T12:22:48.572Z,1012.25
2016-09-18T12:23:59.777Z,1012.25
2016-09-18T12:25:10.789Z,1012.25
2016-09-18T12:26:21.806Z,1012.33
2016-09-18T12:27:32.823Z,1012.32
2016-09-18T12:28:43.843Z,1012.24
2016-09-18T12:29:54.862Z,1012.2
2016-09-18T12:31:05.875Z,1012.14
2016-09-18T12:32:16.889Z,1012.05
2016-09-18T12:33:27.900Z,1012.16
2016-09-18T12:34:38.906Z,1012.1
2016-09-18T12:35:49.910Z,1012.1
2016-09-18T12:37:01.122Z,1012.08
2016-09-18T12:38:12.130Z,1012.04
2016-09-18T12:39:23.349Z,1012.04
2016-09-18T12:40:34.362Z,1012.03
2016-09-18T12:41:45.365Z,1012
2016-09-18T12:42:56.379Z,1012.01
2016-09-18T12:44:07.383Z,1012
2016-09-18T12:45:18.395Z,1011.93
2016-09-18T12:46:29.400Z,1011.97
2016-09-18T12:47:40.408Z,1011.96
2016-09-18T12:48:51.418Z,1012
2016-09-18T12:50:02.438Z,1012.03
2016-09-18T12:51:13.456Z,1012.05
2016-09-18T12:52:24.468Z,1012.09
2016-09-18T12:53:35.480Z,1012.06
2016-09-18T12:54:46.504Z,1012.03
2016-09-18T12:55:57.523Z,1012.03
2016-09-18T12:57:08.726Z,1012.02
2016-09-18T12:58:19.934Z,1012.03
2016-09-18T12:59:30.942Z,1012.03
2016-09-18T13:00:42.334Z,1011.95
2016-09-18T13:01:53.619Z,1011.91
2016-09-18T13:03:04.899Z,1011.93
2016-09-18T13:04:16.119Z,1011.92
2016-09-18T13:05:27.722Z,1011.9
2016-09-18T13:06:39.220Z,1011.86
2016-09-18T13:07:50.831Z,1011.81
2016-09-18T13:09:02.585Z,1011.81
2016-09-18T13:10:13.857Z,1011.78
2016-09-18T13:11:25.255Z,1011.79
2016-09-18T13:12:36.779Z,1011.8
2016-09-18T13:13:48.467Z,1011.83
2016-09-18T13:15:00.198Z,1011.85
2016-09-18T13:16:12.136Z,1011.87
2016-09-18T13:17:24.421Z,1011.83
2016-09-18T13:18:36.338Z,1011.81
2016-09-18T13:19:48.153Z,1011.78
2016-09-18T13:20:59.814Z,1011.77
2016-09-18T13:22:11.546Z,1011.75
2016-09-18T13:23:23.218Z,1011.74
2016-09-18T13:24:35.195Z,1011.76
2016-09-18T13:25:46.670Z,1011.71
2016-09-18T13:26:58.378Z,1011.76
2016-09-18T13:28:10.256Z,1011.82
2016-09-18T13:29:21.581Z,1011.89
2016-09-18T13:30:32.925Z,1011.85
2016-09-18T13:31:44.408Z,1011.87
2016-09-18T13:32:56.272Z,1011.81
2016-09-18T13:34:08.145Z,1011.78
2016-09-18T13:35:19.948Z,1011.77
2016-09-18T13:36:31.860Z,1011.73
2016-09-18T13:37:43.534Z,1011.76
2016-09-18T13:38:55.151Z,1011.76
2016-09-18T13:40:06.885Z,1011.8
2016-09-18T13:41:18.527Z,1011.8
2016-09-18T13:42:30.250Z,1011.84
2016-09-18T13:43:41.967Z,1011.79
2016-09-18T13:44:53.242Z,1011.81
2016-09-18T13:46:04.383Z,1011.8
2016-09-18T13:47:15.726Z,1011.75
2016-09-18T13:48:27.143Z,1011.71
2016-09-18T13:49:38.814Z,1011.67
2016-09-18T13:50:50.611Z,1011.66
2016-09-18T13:52:02.285Z,1011.68
2016-09-18T13:53:13.905Z,1011.68
2016-09-18T13:54:25.001Z,1011.7
2016-09-18T13:55:36.801Z,1011.67
2016-09-18T13:56:48.093Z,1011.69
2016-09-18T13:57:59.728Z,1011.69
2016-09-18T13:59:11.058Z,1011.75
2016-09-18T14:00:22.097Z,1011.72
2016-09-18T14:01:33.146Z,1011.71
2016-09-18T14:02:44.566Z,1011.69
2016-09-18T14:03:55.746Z,1011.68
2016-09-18T14:05:07.270Z,1011.67
2016-09-18T14:06:18.676Z,1011.66
2016-09-18T14:07:30.169Z,1011.66
2016-09-18T14:08:41.836Z,1011.7
2016-09-18T14:09:53.310Z,1011.69
2016-09-18T14:11:04.757Z,1011.7
2016-09-18T14:12:16.525Z,1011.73
2016-09-18T14:13:27.736Z,1011.73
2016-09-18T14:14:38.753Z,1011.7
2016-09-18T14:15:49.818Z,1011.73
2016-09-18T14:17:00.969Z,1011.73
2016-09-18T14:18:12.072Z,1011.71
2016-09-18T14:19:23.672Z,1011.75
2016-09-18T14:20:34.686Z,1011.76
2016-09-18T14:21:45.691Z,1011.76
2016-09-18T14:22:56.712Z,1011.76